sensor_id;sensor_type;location;lat;lon;timestamp;pressure;altitude;pressure_sealevel;temperature;humidity
43814;BME280;29669;55.706;37.656;2023-04-01T00:01:49;98565.97;;;4.28;66.18
43814;BME280;29669;55.706;37.656;2023-04-01T00:04:17;98559.72;;;4.30;66.20
43814;BME280;29669;55.706;37.656;2023-04-01T00:06:45;98571.91;;;4.28;66.20
43814;BME280;29669;55.706;37.656;2023-04-01T00:09:14;98565.97;;;4.28;66.16
43814;BME280;29669;55.706;37.656;2023-04-01T00:11:42;98566.78;;;4.28;66.28
43814;BME280;29669;55.706;37.656;2023-04-01T00:14:09;98567.75;;;4.27;66.22
43814;BME280;29669;55.706;37.656;2023-04-01T00:16:38;98574.00;;;4.25;66.30
43814;BME280;29669;55.706;37.656;2023-04-01T00:19:05;98565.47;;;4.24;66.31
43814;BME280;29669;55.706;37.656;2023-04-01T00:21:33;98564.38;;;4.27;66.25
43814;BME280;29669;55.706;37.656;2023-04-01T00:47:44;98553.09;;;4.20;66.45
43814;BME280;29669;55.706;37.656;2023-04-01T00:50:12;98553.91;;;4.20;66.51
43814;BME280;29669;55.706;37.656;2023-04-01T00:52:40;98546.19;;;4.20;66.42
43814;BME280;29669;55.706;37.656;2023-04-01T00:55:07;98547.81;;;4.21;66.34
43814;BME280;29669;55.706;37.656;2023-04-01T00:57:38;98541.88;;;4.21;66.40
43814;BME280;29669;55.706;37.656;2023-04-01T01:00:09;98547.00;;;4.21;66.39
43814;BME280;29669;55.706;37.656;2023-04-01T01:02:37;98550.69;;;4.18;66.29
43814;BME280;29669;55.706;37.656;2023-04-01T01:05:05;98549.22;;;4.16;66.44
43814;BME280;29669;55.706;37.656;2023-04-01T01:17:37;98550.81;;;4.09;66.48
43814;BME280;29669;55.706;37.656;2023-04-01T01:25:30;98554.31;;;4.08;66.46
43814;BME280;29669;55.706;37.656;2023-04-01T01:30:43;98563.31;;;4.12;66.66
43814;BME280;29669;55.706;37.656;2023-04-01T01:35:54;98559.78;;;4.13;66.62
43814;BME280;29669;55.706;37.656;2023-04-01T01:38:24;98559.66;;;4.14;66.57
43814;BME280;29669;55.706;37.656;2023-04-01T01:41:02;98561.09;;;4.17;66.52
43814;BME280;29669;55.706;37.656;2023-04-01T01:43:32;98553.09;;;4.20;66.53
43814;BME280;29669;55.706;37.656;2023-04-01T01:46:02;98557.28;;;4.21;66.56
43814;BME280;29669;55.706;37.656;2023-04-01T01:48:32;98553.91;;;4.20;66.58
43814;BME280;29669;55.706;37.656;2023-04-01T01:50:59;98552.78;;;4.23;66.55
43814;BME280;29669;55.706;37.656;2023-04-01T01:53:27;98560.34;;;4.24;66.62
43814;BME280;29669;55.706;37.656;2023-04-01T01:55:55;98561.16;;;4.25;66.59
43814;BME280;29669;55.706;37.656;2023-04-01T02:00:55;98553.28;;;4.26;66.38
43814;BME280;29669;55.706;37.656;2023-04-01T02:03:24;98556.66;;;4.27;66.41
43814;BME280;29669;55.706;37.656;2023-04-01T02:05:53;98561.81;;;4.27;66.35
43814;BME280;29669;55.706;37.656;2023-04-01T02:08:22;98560.06;;;4.27;66.55
43814;BME280;29669;55.706;37.656;2023-04-01T02:10:57;98562.31;;;4.30;66.56
43814;BME280;29669;55.706;37.656;2023-04-01T02:13:37;98568.91;;;4.33;66.52
43814;BME280;29669;55.706;37.656;2023-04-01T02:16:31;98563.78;;;4.33;66.30
43814;BME280;29669;55.706;37.656;2023-04-01T02:18:57;98573.06;;;4.34;66.45
43814;BME280;29669;55.706;37.656;2023-04-01T02:21:26;98572.91;;;4.35;66.50
43814;BME280;29669;55.706;37.656;2023-04-01T02:23:54;98572.13;;;4.35;66.29
43814;BME280;29669;55.706;37.656;2023-04-01T02:26:24;98577.09;;;4.36;66.39
43814;BME280;29669;55.706;37.656;2023-04-01T02:28:53;98573.56;;;4.37;66.46
43814;BME280;29669;55.706;37.656;2023-04-01T02:31:21;98573.44;;;4.39;66.30
43814;BME280;29669;55.706;37.656;2023-04-01T02:33:50;98570.56;;;4.42;66.52
43814;BME280;29669;55.706;37.656;2023-04-01T02:36:18;98571.22;;;4.44;66.43
43814;BME280;29669;55.706;37.656;2023-04-01T02:38:45;98572.03;;;4.44;66.37
43814;BME280;29669;55.706;37.656;2023-04-01T02:41:14;98581.16;;;4.47;66.34
43814;BME280;29669;55.706;37.656;2023-04-01T02:43:41;98577.16;;;4.44;66.25
43814;BME280;29669;55.706;37.656;2023-04-01T02:46:09;98574.44;;;4.46;66.50
43814;BME280;29669;55.706;37.656;2023-04-01T02:48:37;98575.09;;;4.48;66.52
43814;BME280;29669;55.706;37.656;2023-04-01T02:51:04;98577.66;;;4.48;66.30
43814;BME280;29669;55.706;37.656;2023-04-01T02:53:32;98579.25;;;4.49;66.47
43814;BME280;29669;55.706;37.656;2023-04-01T02:55:59;98581.16;;;4.47;66.42
43814;BME280;29669;55.706;37.656;2023-04-01T02:58:27;98573.34;;;4.48;66.43
43814;BME280;29669;55.706;37.656;2023-04-01T03:00:54;98571.69;;;4.47;66.51
43814;BME280;29669;55.706;37.656;2023-04-01T03:03:22;98572.53;;;4.48;66.44
43814;BME280;29669;55.706;37.656;2023-04-01T03:05:49;98577.66;;;4.48;66.26
43814;BME280;29669;55.706;37.656;2023-04-01T03:08:18;98580.22;;;4.48;66.60
43814;BME280;29669;55.706;37.656;2023-04-01T03:10:45;98585.38;;;4.48;66.41
43814;BME280;29669;55.706;37.656;2023-04-01T03:13:13;98587.13;;;4.47;66.42
43814;BME280;29669;55.706;37.656;2023-04-01T03:15:40;98584.38;;;4.49;66.49
43814;BME280;29669;55.706;37.656;2023-04-01T03:18:08;98590.34;;;4.49;66.51
43814;BME280;29669;55.706;37.656;2023-04-01T03:20:37;98590.03;;;4.52;66.70
43814;BME280;29669;55.706;37.656;2023-04-01T03:23:04;98590.84;;;4.53;66.53
43814;BME280;29669;55.706;37.656;2023-04-01T03:25:32;98594.06;;;4.55;66.34
43814;BME280;29669;55.706;37.656;2023-04-01T03:28:01;98597.59;;;4.54;66.60
43814;BME280;29669;55.706;37.656;2023-04-01T03:30:29;98592.59;;;4.52;66.47
43814;BME280;29669;55.706;37.656;2023-04-01T03:33:00;98601.28;;;4.51;66.53
43814;BME280;29669;55.706;37.656;2023-04-01T03:35:30;98599.69;;;4.50;66.48
43814;BME280;29669;55.706;37.656;2023-04-01T03:37:58;98608.97;;;4.51;66.44
43814;BME280;29669;55.706;37.656;2023-04-01T03:40:26;98599.53;;;4.52;66.52
43814;BME280;29669;55.706;37.656;2023-04-01T03:42:54;98612.06;;;4.55;66.48
43814;BME280;29669;55.706;37.656;2023-04-01T03:45:23;98615.44;;;4.55;66.42
43814;BME280;29669;55.706;37.656;2023-04-01T03:47:51;98609.97;;;4.58;66.54
43814;BME280;29669;55.706;37.656;2023-04-01T03:50:19;98612.09;;;4.63;66.57
43814;BME280;29669;55.706;37.656;2023-04-01T03:52:47;98621.91;;;4.67;66.35
43814;BME280;29669;55.706;37.656;2023-04-01T03:55:14;98625.28;;;4.68;66.26
43814;BME280;29669;55.706;37.656;2023-04-01T03:57:42;98623.69;;;4.67;66.33
43814;BME280;29669;55.706;37.656;2023-04-01T04:00:17;98631.22;;;4.68;66.08
43814;BME280;29669;55.706;37.656;2023-04-01T04:02:49;98639.88;;;4.67;66.40
43814;BME280;29669;55.706;37.656;2023-04-01T04:05:25;98638.28;;;4.66;66.24
43814;BME280;29669;55.706;37.656;2023-04-01T04:07:52;98644.41;;;4.65;66.31
43814;BME280;29669;55.706;37.656;2023-04-01T04:10:20;98638.44;;;4.65;66.35
43814;BME280;29669;55.706;37.656;2023-04-01T04:12:50;98643.28;;;4.68;66.30
43814;BME280;29669;55.706;37.656;2023-04-01T04:15:19;98647.47;;;4.69;66.28
43814;BME280;29669;55.706;37.656;2023-04-01T04:17:47;98647.31;;;4.70;66.12
43814;BME280;29669;55.706;37.656;2023-04-01T04:20:15;98639.59;;;4.70;66.08
43814;BME280;29669;55.706;37.656;2023-04-01T04:22:42;98647.47;;;4.69;66.12
43814;BME280;29669;55.706;37.656;2023-04-01T04:25:10;98655.19;;;4.69;65.92
43814;BME280;29669;55.706;37.656;2023-04-01T04:27:38;98655.97;;;4.69;66.17
43814;BME280;29669;55.706;37.656;2023-04-01T04:30:08;98643.94;;;4.70;66.15
43814;BME280;29669;55.706;37.656;2023-04-01T04:32:36;98647.97;;;4.72;66.17
43814;BME280;29669;55.706;37.656;2023-04-01T04:35:04;98653.75;;;4.74;65.93
43814;BME280;29669;55.706;37.656;2023-04-01T04:37:34;98661.16;;;4.77;65.96
43814;BME280;29669;55.706;37.656;2023-04-01T04:40:01;98655.56;;;4.82;65.95
43814;BME280;29669;55.706;37.656;2023-04-01T04:42:30;98654.44;;;4.85;65.80
43814;BME280;29669;55.706;37.656;2023-04-01T04:45:03;98658.19;;;4.90;65.78
43814;BME280;29669;55.706;37.656;2023-04-01T04:47:31;98659.31;;;4.96;65.82
43814;BME280;29669;55.706;37.656;2023-04-01T04:49:59;98669.28;;;4.99;65.79
43814;BME280;29669;55.706;37.656;2023-04-01T04:52:26;98668.97;;;5.02;65.79
43814;BME280;29669;55.706;37.656;2023-04-01T04:54:54;98673.00;;;5.04;65.73
43814;BME280;29669;55.706;37.656;2023-04-01T04:57:22;98680.06;;;5.02;65.68
43814;BME280;29669;55.706;37.656;2023-04-01T04:59:54;98681.84;;;5.02;65.74
43814;BME280;29669;55.706;37.656;2023-04-01T05:02:43;98685.06;;;5.04;65.79
43814;BME280;29669;55.706;37.656;2023-04-01T05:05:10;98681.69;;;5.03;65.69
43814;BME280;29669;55.706;37.656;2023-04-01T05:07:38;98687.13;;;5.00;65.68
43814;BME280;29669;55.706;37.656;2023-04-01T05:10:07;98688.59;;;5.03;65.83
43814;BME280;29669;55.706;37.656;2023-04-01T05:12:35;98689.75;;;5.08;65.78
43814;BME280;29669;55.706;37.656;2023-04-01T05:15:08;98684.47;;;5.18;65.77
43814;BME280;29669;55.706;37.656;2023-04-01T05:17:37;98691.09;;;5.28;65.71
43814;BME280;29669;55.706;37.656;2023-04-01T05:20:05;98688.25;;;5.39;65.76
43814;BME280;29669;55.706;37.656;2023-04-01T05:22:33;98692.97;;;5.52;65.66
43814;BME280;29669;55.706;37.656;2023-04-01T05:25:01;98694.41;;;5.62;65.62
43814;BME280;29669;55.706;37.656;2023-04-01T05:27:28;98698.47;;;5.73;65.61
43814;BME280;29669;55.706;37.656;2023-04-01T05:29:56;98695.91;;;5.81;65.39
43814;BME280;29669;55.706;37.656;2023-04-01T05:32:46;98696.75;;;5.90;65.45
43814;BME280;29669;55.706;37.656;2023-04-01T05:35:14;98692.56;;;5.97;65.36
43814;BME280;29669;55.706;37.656;2023-04-01T05:37:42;98690.66;;;6.07;65.65
43814;BME280;29669;55.706;37.656;2023-04-01T05:40:10;98693.91;;;6.17;65.38
43814;BME280;29669;55.706;37.656;2023-04-01T05:42:38;98702.06;;;6.28;65.33
43814;BME280;29669;55.706;37.656;2023-04-01T05:45:05;98701.44;;;6.34;65.02
43814;BME280;29669;55.706;37.656;2023-04-01T05:47:52;98701.59;;;6.41;64.92
43814;BME280;29669;55.706;37.656;2023-04-01T05:50:20;98702.91;;;6.45;64.86
43814;BME280;29669;55.706;37.656;2023-04-01T05:52:48;98700.63;;;6.50;64.94
43814;BME280;29669;55.706;37.656;2023-04-01T05:55:16;98704.03;;;6.58;64.75
43814;BME280;29669;55.706;37.656;2023-04-01T05:57:47;98705.91;;;6.64;64.71
43814;BME280;29669;55.706;37.656;2023-04-01T06:00:16;98706.09;;;6.71;64.59
43814;BME280;29669;55.706;37.656;2023-04-01T06:02:44;98716.03;;;6.82;64.64
43814;BME280;29669;55.706;37.656;2023-04-01T06:05:14;98721.19;;;6.90;64.43
43814;BME280;29669;55.706;37.656;2023-04-01T06:07:44;98722.47;;;6.94;64.27
43814;BME280;29669;55.706;37.656;2023-04-01T06:10:12;98718.59;;;6.98;64.44
43814;BME280;29669;55.706;37.656;2023-04-01T06:12:45;98717.91;;;7.04;64.25
43814;BME280;29669;55.706;37.656;2023-04-01T06:15:20;98719.03;;;7.10;64.24
43814;BME280;29669;55.706;37.656;2023-04-01T06:20:46;98719.75;;;7.65;64.05
43814;BME280;29669;55.706;37.656;2023-04-01T06:23:22;98712.28;;;8.01;63.70
43814;BME280;29669;55.706;37.656;2023-04-01T06:44:53;98727.59;;;8.99;62.10
43814;BME280;29669;55.706;37.656;2023-04-01T06:53:54;98750.53;;;8.36;62.73
43814;BME280;29669;55.706;37.656;2023-04-01T06:58:03;98745.66;;;8.10;63.01
43814;BME280;29669;55.706;37.656;2023-04-01T07:00:03;98747.50;;;8.02;63.22
43814;BME280;29669;55.706;37.656;2023-04-01T07:02:39;98752.03;;;8.00;63.36
43814;BME280;29669;55.706;37.656;2023-04-01T07:05:11;98760.47;;;7.94;63.15
43814;BME280;29669;55.706;37.656;2023-04-01T07:10:15;98752.53;;;7.95;63.35
43814;BME280;29669;55.706;37.656;2023-04-01T07:13:05;98750.13;;;8.16;63.53
43814;BME280;29669;55.706;37.656;2023-04-01T07:16:01;98753.31;;;8.49;63.24
43814;BME280;29669;55.706;37.656;2023-04-01T07:18:41;98753.56;;;8.77;62.52
43814;BME280;29669;55.706;37.656;2023-04-01T07:21:14;98752.03;;;8.82;62.18
43814;BME280;29669;55.706;37.656;2023-04-01T07:23:45;98756.00;;;8.93;62.44
43814;BME280;29669;55.706;37.656;2023-04-01T07:26:39;98753.06;;;9.25;62.15
43814;BME280;29669;55.706;37.656;2023-04-01T07:29:13;98756.47;;;9.40;61.58
43814;BME280;29669;55.706;37.656;2023-04-01T07:31:55;98758.94;;;9.63;61.43
43814;BME280;29669;55.706;37.656;2023-04-01T07:34:36;98758.31;;;9.96;60.96
43814;BME280;29669;55.706;37.656;2023-04-01T07:37:15;98756.41;;;10.19;60.24
43814;BME280;29669;55.706;37.656;2023-04-01T07:47:59;98767.75;;;10.88;59.25
43814;BME280;29669;55.706;37.656;2023-04-01T07:50:32;98764.22;;;11.23;59.06
43814;BME280;29669;55.706;37.656;2023-04-01T07:53:22;98770.91;;;11.46;58.55
43814;BME280;29669;55.706;37.656;2023-04-01T08:17:43;98781.69;;;12.63;56.51
43814;BME280;29669;55.706;37.656;2023-04-01T08:23:05;98791.88;;;12.78;55.86
43814;BME280;29669;55.706;37.656;2023-04-01T08:25:48;98784.88;;;12.72;55.29
43814;BME280;29669;55.706;37.656;2023-04-01T08:28:23;98782.28;;;12.65;55.28
43814;BME280;29669;55.706;37.656;2023-04-01T08:30:53;98785.88;;;12.64;55.43
43814;BME280;29669;55.706;37.656;2023-04-01T08:38:53;98795.72;;;11.89;56.04
43814;BME280;29669;55.706;37.656;2023-04-01T08:55:09;98799.69;;;10.61;57.59
43814;BME280;29669;55.706;37.656;2023-04-01T09:06:40;98806.75;;;11.57;55.88
43814;BME280;29669;55.706;37.656;2023-04-01T09:09:25;98811.19;;;11.63;55.77
43814;BME280;29669;55.706;37.656;2023-04-01T09:12:23;98817.28;;;11.76;55.78
43814;BME280;29669;55.706;37.656;2023-04-01T09:17:48;98811.47;;;12.35;55.14
43814;BME280;29669;55.706;37.656;2023-04-01T09:22:50;98812.22;;;12.09;54.88
43814;BME280;29669;55.706;37.656;2023-04-01T09:38:21;98822.94;;;10.48;56.51
43814;BME280;29669;55.706;37.656;2023-04-01T09:43:56;98831.44;;;10.42;56.70
43814;BME280;29669;55.706;37.656;2023-04-01T09:46:35;98832.41;;;10.41;56.24
43814;BME280;29669;55.706;37.656;2023-04-01T09:52:24;98836.50;;;10.29;55.98
43814;BME280;29669;55.706;37.656;2023-04-01T10:02:52;98859.06;;;10.14;56.09
43814;BME280;29669;55.706;37.656;2023-04-01T10:10:36;98854.91;;;10.34;55.73
43814;BME280;29669;55.706;37.656;2023-04-01T10:15:53;98860.72;;;10.36;55.37
43814;BME280;29669;55.706;37.656;2023-04-01T10:32:29;98875.13;;;10.24;55.06
43814;BME280;29669;55.706;37.656;2023-04-01T10:46:21;98882.47;;;10.35;54.76
43814;BME280;29669;55.706;37.656;2023-04-01T11:03:20;98885.63;;;10.52;54.08
43814;BME280;29669;55.706;37.656;2023-04-01T11:27:58;98887.09;;;11.52;52.07
43814;BME280;29669;55.706;37.656;2023-04-01T11:33:24;98880.13;;;11.59;52.12
43814;BME280;29669;55.706;37.656;2023-04-01T11:41:36;98889.13;;;12.31;51.36
43814;BME280;29669;55.706;37.656;2023-04-01T11:44:26;98896.63;;;12.60;51.23
43814;BME280;29669;55.706;37.656;2023-04-01T11:47:13;98896.66;;;12.93;50.91
43814;BME280;29669;55.706;37.656;2023-04-01T11:49:52;98895.75;;;13.27;50.69
43814;BME280;29669;55.706;37.656;2023-04-01T11:53:00;98888.09;;;13.45;50.43
43814;BME280;29669;55.706;37.656;2023-04-01T11:55:28;98891.50;;;13.52;50.59
43814;BME280;29669;55.706;37.656;2023-04-01T12:00:48;98896.91;;;13.63;50.31
43814;BME280;29669;55.706;37.656;2023-04-01T12:03:33;98890.88;;;13.50;50.41
43814;BME280;29669;55.706;37.656;2023-04-01T12:06:16;98898.31;;;13.53;50.87
43814;BME280;29669;55.706;37.656;2023-04-01T12:08:57;98902.72;;;13.72;50.50
43814;BME280;29669;55.706;37.656;2023-04-01T12:11:33;98901.28;;;13.89;50.26
43814;BME280;29669;55.706;37.656;2023-04-01T12:14:11;98902.84;;;13.90;49.90
43814;BME280;29669;55.706;37.656;2023-04-01T12:24:36;98897.22;;;13.99;50.25
43814;BME280;29669;55.706;37.656;2023-04-01T12:29:47;98901.19;;;14.08;49.32
43814;BME280;29669;55.706;37.656;2023-04-01T12:45:29;98899.94;;;14.24;48.82
43814;BME280;29669;55.706;37.656;2023-04-01T12:55:39;98923.69;;;14.03;47.78
43814;BME280;29669;55.706;37.656;2023-04-01T13:08:52;98931.81;;;13.62;48.31
43814;BME280;29669;55.706;37.656;2023-04-01T13:16:27;98930.41;;;13.20;48.93
43814;BME280;29669;55.706;37.656;2023-04-01T13:34:14;98955.09;;;12.17;49.90
43814;BME280;29669;55.706;37.656;2023-04-01T13:44:34;98972.78;;;11.66;50.43
43814;BME280;29669;55.706;37.656;2023-04-01T13:49:44;98977.00;;;11.46;50.43
43814;BME280;29669;55.706;37.656;2023-04-01T14:10:36;98989.19;;;10.82;51.11
43814;BME280;29669;55.706;37.656;2023-04-01T14:13:30;98987.31;;;10.76;51.14
43814;BME280;29669;55.706;37.656;2023-04-01T14:29:34;99003.53;;;10.49;52.10
43814;BME280;29669;55.706;37.656;2023-04-01T14:32:24;99003.09;;;10.46;51.96
43814;BME280;29669;55.706;37.656;2023-04-01T14:37:36;98998.91;;;10.30;52.24
43814;BME280;29669;55.706;37.656;2023-04-01T14:50:53;99027.56;;;9.99;52.99
43814;BME280;29669;55.706;37.656;2023-04-01T14:55:50;99028.81;;;10.03;52.93
43814;BME280;29669;55.706;37.656;2023-04-01T14:58:19;99031.59;;;10.02;53.06
43814;BME280;29669;55.706;37.656;2023-04-01T15:05:56;99039.72;;;9.99;53.42
43814;BME280;29669;55.706;37.656;2023-04-01T15:08:27;99040.25;;;9.94;53.46
43814;BME280;29669;55.706;37.656;2023-04-01T15:13:53;99052.13;;;9.89;53.98
43814;BME280;29669;55.706;37.656;2023-04-01T15:16:25;99046.50;;;9.85;54.12
43814;BME280;29669;55.706;37.656;2023-04-01T15:19:08;99050.78;;;9.78;54.18
43814;BME280;29669;55.706;37.656;2023-04-01T15:21:50;99058.59;;;9.70;54.48
43814;BME280;29669;55.706;37.656;2023-04-01T15:32:16;99069.94;;;9.46;55.22
43814;BME280;29669;55.706;37.656;2023-04-01T15:40:05;99072.31;;;9.33;55.70
43814;BME280;29669;55.706;37.656;2023-04-01T15:42:46;99077.66;;;9.32;55.85
43814;BME280;29669;55.706;37.656;2023-04-01T15:45:22;99079.09;;;9.34;55.86
43814;BME280;29669;55.706;37.656;2023-04-01T15:48:02;99084.91;;;9.36;55.84
43814;BME280;29669;55.706;37.656;2023-04-01T15:50:41;99095.28;;;9.36;55.99
43814;BME280;29669;55.706;37.656;2023-04-01T16:00:49;99104.66;;;9.37;56.12
43814;BME280;29669;55.706;37.656;2023-04-01T16:06:11;99102.41;;;9.34;56.23
43814;BME280;29669;55.706;37.656;2023-04-01T16:08:49;99099.69;;;9.28;56.37
43814;BME280;29669;55.706;37.656;2023-04-01T16:13:58;99111.03;;;9.27;56.61
43814;BME280;29669;55.706;37.656;2023-04-01T16:21:56;99130.66;;;9.21;56.70
43814;BME280;29669;55.706;37.656;2023-04-01T16:24:35;99133.28;;;9.13;56.97
43814;BME280;29669;55.706;37.656;2023-04-01T16:27:41;99130.38;;;9.08;57.17
43814;BME280;29669;55.706;37.656;2023-04-01T16:30:01;99141.06;;;9.05;57.20
43814;BME280;29669;55.706;37.656;2023-04-01T16:32:35;99134.78;;;9.00;57.45
43814;BME280;29669;55.706;37.656;2023-04-01T16:37:52;99137.53;;;8.98;57.58
43814;BME280;29669;55.706;37.656;2023-04-01T16:40:44;99139.50;;;8.96;57.67
43814;BME280;29669;55.706;37.656;2023-04-01T16:43:24;99143.22;;;8.94;57.72
43814;BME280;29669;55.706;37.656;2023-04-01T16:46:35;99150.50;;;8.90;57.97
43814;BME280;29669;55.706;37.656;2023-04-01T16:52:04;99150.50;;;8.90;58.10
43814;BME280;29669;55.706;37.656;2023-04-01T16:54:28;99154.72;;;8.91;58.23
43814;BME280;29669;55.706;37.656;2023-04-01T16:59:36;99151.63;;;8.88;58.29
43814;BME280;29669;55.706;37.656;2023-04-01T17:07:11;99156.81;;;8.88;58.55
43814;BME280;29669;55.706;37.656;2023-04-01T17:25:15;99177.03;;;8.92;58.78
43814;BME280;29669;55.706;37.656;2023-04-01T17:30:26;99166.31;;;8.95;58.68
43814;BME280;29669;55.706;37.656;2023-04-01T17:33:06;99166.69;;;8.92;58.78
43814;BME280;29669;55.706;37.656;2023-04-01T17:35:39;99176.22;;;8.92;58.83
43814;BME280;29669;55.706;37.656;2023-04-01T17:38:17;99175.44;;;8.91;58.89
43814;BME280;29669;55.706;37.656;2023-04-01T17:40:53;99172.97;;;8.90;59.11
43814;BME280;29669;55.706;37.656;2023-04-01T17:43:28;99173.78;;;8.90;59.10
43814;BME280;29669;55.706;37.656;2023-04-01T17:46:50;99176.22;;;8.92;59.26
43814;BME280;29669;55.706;37.656;2023-04-01T17:48:54;99178.31;;;8.96;59.18
43814;BME280;29669;55.706;37.656;2023-04-01T17:51:32;99186.72;;;8.98;59.08
43814;BME280;29669;55.706;37.656;2023-04-01T18:01:30;99185.78;;;8.91;59.23
43814;BME280;29669;55.706;37.656;2023-04-01T18:04:10;99190.31;;;8.89;59.19
43814;BME280;29669;55.706;37.656;2023-04-01T18:17:16;99194.50;;;8.82;59.78
43814;BME280;29669;55.706;37.656;2023-04-01T18:22:26;99202.78;;;8.78;59.71
43814;BME280;29669;55.706;37.656;2023-04-01T18:27:38;99215.72;;;8.78;60.02
43814;BME280;29669;55.706;37.656;2023-04-01T18:30:11;99212.81;;;8.81;59.94
43814;BME280;29669;55.706;37.656;2023-04-01T18:32:47;99224.78;;;8.82;59.86
43814;BME280;29669;55.706;37.656;2023-04-01T18:35:19;99226.06;;;8.78;59.95
43814;BME280;29669;55.706;37.656;2023-04-01T18:40:20;99232.84;;;8.79;59.94
43814;BME280;29669;55.706;37.656;2023-04-01T18:45:43;99232.84;;;8.79;59.95
43814;BME280;29669;55.706;37.656;2023-04-01T18:50:50;99228.50;;;8.79;60.11
43814;BME280;29669;55.706;37.656;2023-04-01T18:55:51;99244.38;;;8.76;60.17
43814;BME280;29669;55.706;37.656;2023-04-01T18:58:34;99240.63;;;8.79;60.08
43814;BME280;29669;55.706;37.656;2023-04-01T19:06:28;99239.63;;;8.88;59.99
43814;BME280;29669;55.706;37.656;2023-04-01T19:09:00;99246.13;;;8.84;59.95
43814;BME280;29669;55.706;37.656;2023-04-01T19:11:43;99248.88;;;8.74;60.24
43814;BME280;29669;55.706;37.656;2023-04-01T19:14:31;99250.19;;;8.70;60.38
43814;BME280;29669;55.706;37.656;2023-04-01T19:17:13;99244.03;;;8.71;60.62
43814;BME280;29669;55.706;37.656;2023-04-01T19:24:45;99253.38;;;8.80;60.60
43814;BME280;29669;55.706;37.656;2023-04-01T19:27:28;99254.19;;;8.81;60.55
43814;BME280;29669;55.706;37.656;2023-04-01T19:32:42;99257.31;;;8.76;60.68
43814;BME280;29669;55.706;37.656;2023-04-01T19:35:19;99258.91;;;8.77;60.85
43814;BME280;29669;55.706;37.656;2023-04-01T19:37:51;99258.56;;;8.80;60.79
43814;BME280;29669;55.706;37.656;2023-04-01T19:43:09;99267.97;;;8.81;60.65
43814;BME280;29669;55.706;37.656;2023-04-01T19:45:51;99272.47;;;8.79;60.88
43814;BME280;29669;55.706;37.656;2023-04-01T19:51:11;99264.72;;;8.79;60.94
43814;BME280;29669;55.706;37.656;2023-04-01T19:56:18;99267.63;;;8.84;60.83
43814;BME280;29669;55.706;37.656;2023-04-01T20:01:34;99281.19;;;8.86;60.88
43814;BME280;29669;55.706;37.656;2023-04-01T20:04:13;99277.00;;;8.85;60.87
43814;BME280;29669;55.706;37.656;2023-04-01T20:06:44;99272.00;;;8.84;60.75
43814;BME280;29669;55.706;37.656;2023-04-01T20:17:00;99280.38;;;8.86;61.06
43814;BME280;29669;55.706;37.656;2023-04-01T20:22:23;99278.13;;;8.91;61.01
43814;BME280;29669;55.706;37.656;2023-04-01T20:24:58;99276.03;;;8.94;60.96
43814;BME280;29669;55.706;37.656;2023-04-01T20:27:30;99280.06;;;8.97;60.95
43814;BME280;29669;55.706;37.656;2023-04-01T20:40:32;99284.25;;;9.06;60.88
43814;BME280;29669;55.706;37.656;2023-04-01T20:45:42;99285.38;;;9.11;60.87
43814;BME280;29669;55.706;37.656;2023-04-01T20:51:03;99286.03;;;9.05;60.88
43814;BME280;29669;55.706;37.656;2023-04-01T20:53:40;99293.78;;;9.05;61.03
43814;BME280;29669;55.706;37.656;2023-04-01T20:58:58;99278.75;;;9.09;60.98
43814;BME280;29669;55.706;37.656;2023-04-01T21:04:27;99278.56;;;9.10;61.00
43814;BME280;29669;55.706;37.656;2023-04-01T21:07:14;99296.38;;;9.13;61.01
43814;BME280;29669;55.706;37.656;2023-04-01T21:09:47;99290.38;;;9.13;60.86
43814;BME280;29669;55.706;37.656;2023-04-01T21:27:55;99300.63;;;8.98;61.24
43814;BME280;29669;55.706;37.656;2023-04-01T21:35:44;99307.38;;;8.99;61.16
43814;BME280;29669;55.706;37.656;2023-04-01T21:48:37;99321.97;;;9.08;61.26
43814;BME280;29669;55.706;37.656;2023-04-01T21:51:17;99326.31;;;9.08;61.26
43814;BME280;29669;55.706;37.656;2023-04-01T21:59:21;99329.03;;;9.14;61.29
43814;BME280;29669;55.706;37.656;2023-04-01T22:07:31;99325.03;;;9.12;61.40
43814;BME280;29669;55.706;37.656;2023-04-01T22:12:38;99322.44;;;9.12;61.30
43814;BME280;29669;55.706;37.656;2023-04-01T22:17:47;99318.38;;;9.09;61.24
43814;BME280;29669;55.706;37.656;2023-04-01T22:25:42;99314.03;;;9.10;61.32
43814;BME280;29669;55.706;37.656;2023-04-01T22:28:13;99321.44;;;9.05;61.51
43814;BME280;29669;55.706;37.656;2023-04-01T22:30:49;99315.81;;;9.01;61.46
43814;BME280;29669;55.706;37.656;2023-04-01T22:33:32;99333.28;;;8.99;61.60
43814;BME280;29669;55.706;37.656;2023-04-01T22:41:19;99334.72;;;8.94;61.74
43814;BME280;29669;55.706;37.656;2023-04-01T22:43:51;99335.38;;;8.96;61.87
43814;BME280;29669;55.706;37.656;2023-04-01T22:49:07;99339.44;;;8.98;61.79
43814;BME280;29669;55.706;37.656;2023-04-01T22:51:48;99334.91;;;9.00;61.77
43814;BME280;29669;55.706;37.656;2023-04-01T22:56:46;99338.44;;;8.99;61.78
43814;BME280;29669;55.706;37.656;2023-04-01T23:00:04;99337.66;;;8.99;61.74
43814;BME280;29669;55.706;37.656;2023-04-01T23:02:23;99336.84;;;8.98;61.71
43814;BME280;29669;55.706;37.656;2023-04-01T23:04:54;99333.91;;;8.93;61.86
43814;BME280;29669;55.706;37.656;2023-04-01T23:07:34;99335.72;;;8.93;62.01
43814;BME280;29669;55.706;37.656;2023-04-01T23:13:00;99334.09;;;8.92;62.07
43814;BME280;29669;55.706;37.656;2023-04-01T23:15:29;99338.47;;;8.91;62.10
43814;BME280;29669;55.706;37.656;2023-04-01T23:23:19;99342.00;;;8.82;62.28
43814;BME280;29669;55.706;37.656;2023-04-01T23:26:01;99338.13;;;8.78;62.41
43814;BME280;29669;55.706;37.656;2023-04-01T23:28:37;99333.94;;;8.77;62.53
43814;BME280;29669;55.706;37.656;2023-04-01T23:33:58;99343.00;;;8.81;62.50
43814;BME280;29669;55.706;37.656;2023-04-01T23:36:27;99344.59;;;8.82;62.56
43814;BME280;29669;55.706;37.656;2023-04-01T23:38:55;99352.06;;;8.85;62.63